sensor_id;sensor_type;location;lat;lon;timestamp;P1;durP1;ratioP1;P2;durP2;ratioP2
20073;SDS011;10197;54.282;10.078;2024-01-15T00:02:18;15.77;;;4.53;;
20073;SDS011;10197;54.282;10.078;2024-01-15T00:04:47;11.55;;;3.00;;
20073;SDS011;10197;54.282;10.078;2024-01-15T00:07:13;10.23;;;2.95;;
20073;SDS011;10197;54.282;10.078;2024-01-15T00:09:40;20.50;;;4.13;;
20073;SDS011;10197;54.282;10.078;2024-01-15T00:12:07;13.20;;;2.80;;
20073;SDS011;10197;54.282;10.078;2024-01-15T00:14:33;8.52;;;2.80;;
20073;SDS011;10197;54.282;10.078;2024-01-15T00:17:00;9.05;;;2.53;;
20073;SDS011;10197;54.282;10.078;2024-01-15T00:19:27;9.07;;;2.40;;
20073;SDS011;10197;54.282;10.078;2024-01-15T00:21:58;10.02;;;2.60;;
20073;SDS011;10197;54.282;10.078;2024-01-15T00:24:25;7.57;;;2.92;;
20073;SDS011;10197;54.282;10.078;2024-01-15T00:26:52;6.72;;;2.67;;
20073;SDS011;10197;54.282;10.078;2024-01-15T00:29:20;17.45;;;6.70;;
20073;SDS011;10197;54.282;10.078;2024-01-15T00:31:47;8.63;;;2.60;;
20073;SDS011;10197;54.282;10.078;2024-01-15T00:34:14;9.80;;;2.80;;
20073;SDS011;10197;54.282;10.078;2024-01-15T00:36:40;12.00;;;3.75;;
20073;SDS011;10197;54.282;10.078;2024-01-15T00:39:09;10.52;;;3.03;;
20073;SDS011;10197;54.282;10.078;2024-01-15T00:41:36;17.67;;;2.88;;
20073;SDS011;10197;54.282;10.078;2024-01-15T00:44:02;12.32;;;3.40;;
20073;SDS011;10197;54.282;10.078;2024-01-15T00:46:29;15.48;;;3.58;;
20073;SDS011;10197;54.282;10.078;2024-01-15T00:48:56;13.25;;;3.47;;
20073;SDS011;10197;54.282;10.078;2024-01-15T00:51:23;17.20;;;3.92;;
20073;SDS011;10197;54.282;10.078;2024-01-15T00:53:50;20.65;;;4.60;;
20073;SDS011;10197;54.282;10.078;2024-01-15T00:56:18;13.05;;;3.90;;
20073;SDS011;10197;54.282;10.078;2024-01-15T00:58:45;17.25;;;4.00;;
20073;SDS011;10197;54.282;10.078;2024-01-15T01:01:12;23.63;;;4.20;;
20073;SDS011;10197;54.282;10.078;2024-01-15T01:03:38;19.08;;;3.60;;
20073;SDS011;10197;54.282;10.078;2024-01-15T01:06:05;16.23;;;3.80;;
20073;SDS011;10197;54.282;10.078;2024-01-15T01:08:32;19.70;;;4.75;;
20073;SDS011;10197;54.282;10.078;2024-01-15T01:10:58;29.10;;;4.93;;
20073;SDS011;10197;54.282;10.078;2024-01-15T01:13:27;18.38;;;4.88;;
20073;SDS011;10197;54.282;10.078;2024-01-15T01:15:53;28.05;;;4.95;;
20073;SDS011;10197;54.282;10.078;2024-01-15T01:18:20;26.02;;;4.75;;
20073;SDS011;10197;54.282;10.078;2024-01-15T01:20:47;18.60;;;4.00;;
20073;SDS011;10197;54.282;10.078;2024-01-15T01:23:14;19.58;;;3.78;;
20073;SDS011;10197;54.282;10.078;2024-01-15T01:25:41;25.38;;;5.53;;
20073;SDS011;10197;54.282;10.078;2024-01-15T01:28:08;23.27;;;4.55;;
20073;SDS011;10197;54.282;10.078;2024-01-15T01:30:36;26.15;;;5.13;;
20073;SDS011;10197;54.282;10.078;2024-01-15T01:33:04;19.77;;;4.60;;
20073;SDS011;10197;54.282;10.078;2024-01-15T01:35:31;22.65;;;5.18;;
20073;SDS011;10197;54.282;10.078;2024-01-15T01:37:57;19.42;;;4.47;;
20073;SDS011;10197;54.282;10.078;2024-01-15T01:40:24;23.88;;;4.75;;
20073;SDS011;10197;54.282;10.078;2024-01-15T01:42:51;25.35;;;5.78;;
20073;SDS011;10197;54.282;10.078;2024-01-15T01:45:17;20.25;;;4.30;;
20073;SDS011;10197;54.282;10.078;2024-01-15T01:47:45;17.33;;;4.15;;
20073;SDS011;10197;54.282;10.078;2024-01-15T01:50:12;12.73;;;4.32;;
20073;SDS011;10197;54.282;10.078;2024-01-15T01:52:39;22.13;;;4.55;;
20073;SDS011;10197;54.282;10.078;2024-01-15T01:55:06;15.30;;;4.10;;
20073;SDS011;10197;54.282;10.078;2024-01-15T01:57:33;24.08;;;4.20;;
20073;SDS011;10197;54.282;10.078;2024-01-15T02:00:01;23.75;;;3.95;;
20073;SDS011;10197;54.282;10.078;2024-01-15T02:02:36;18.00;;;4.32;;
20073;SDS011;10197;54.282;10.078;2024-01-15T02:05:05;17.27;;;3.70;;
20073;SDS011;10197;54.282;10.078;2024-01-15T02:07:34;17.17;;;4.32;;
20073;SDS011;10197;54.282;10.078;2024-01-15T02:10:01;20.25;;;5.05;;
20073;SDS011;10197;54.282;10.078;2024-01-15T02:12:27;14.63;;;3.60;;
20073;SDS011;10197;54.282;10.078;2024-01-15T02:14:54;16.30;;;3.97;;
20073;SDS011;10197;54.282;10.078;2024-01-15T02:17:21;19.52;;;4.28;;
20073;SDS011;10197;54.282;10.078;2024-01-15T02:19:47;11.68;;;3.20;;
20073;SDS011;10197;54.282;10.078;2024-01-15T02:22:17;14.73;;;4.53;;
20073;SDS011;10197;54.282;10.078;2024-01-15T02:24:45;15.65;;;4.00;;
20073;SDS011;10197;54.282;10.078;2024-01-15T02:27:12;17.13;;;4.00;;
20073;SDS011;10197;54.282;10.078;2024-01-15T02:29:38;23.08;;;4.35;;
20073;SDS011;10197;54.282;10.078;2024-01-15T02:32:05;19.17;;;4.10;;
20073;SDS011;10197;54.282;10.078;2024-01-15T02:34:33;15.38;;;3.53;;
20073;SDS011;10197;54.282;10.078;2024-01-15T02:36:59;14.20;;;4.45;;
20073;SDS011;10197;54.282;10.078;2024-01-15T02:39:26;23.02;;;3.72;;
20073;SDS011;10197;54.282;10.078;2024-01-15T02:41:55;11.98;;;4.03;;
20073;SDS011;10197;54.282;10.078;2024-01-15T02:44:22;20.42;;;3.95;;
20073;SDS011;10197;54.282;10.078;2024-01-15T02:46:49;17.98;;;3.83;;
20073;SDS011;10197;54.282;10.078;2024-01-15T02:49:16;16.05;;;4.13;;
20073;SDS011;10197;54.282;10.078;2024-01-15T02:51:43;18.90;;;3.95;;
20073;SDS011;10197;54.282;10.078;2024-01-15T02:54:10;14.80;;;3.72;;
20073;SDS011;10197;54.282;10.078;2024-01-15T02:56:38;22.45;;;4.60;;
20073;SDS011;10197;54.282;10.078;2024-01-15T02:59:06;20.73;;;4.38;;
20073;SDS011;10197;54.282;10.078;2024-01-15T03:01:32;23.70;;;4.25;;
20073;SDS011;10197;54.282;10.078;2024-01-15T03:03:59;30.20;;;4.55;;
20073;SDS011;10197;54.282;10.078;2024-01-15T03:06:26;18.38;;;3.78;;
20073;SDS011;10197;54.282;10.078;2024-01-15T03:08:52;17.70;;;4.00;;
20073;SDS011;10197;54.282;10.078;2024-01-15T03:11:19;18.45;;;3.75;;
20073;SDS011;10197;54.282;10.078;2024-01-15T03:13:46;14.10;;;3.63;;
20073;SDS011;10197;54.282;10.078;2024-01-15T03:16:14;15.25;;;3.83;;
20073;SDS011;10197;54.282;10.078;2024-01-15T03:18:41;15.38;;;3.80;;
20073;SDS011;10197;54.282;10.078;2024-01-15T03:21:07;16.15;;;3.17;;
20073;SDS011;10197;54.282;10.078;2024-01-15T03:23:34;14.18;;;3.03;;
20073;SDS011;10197;54.282;10.078;2024-01-15T03:26:01;12.95;;;3.30;;
20073;SDS011;10197;54.282;10.078;2024-01-15T03:28:27;13.57;;;3.05;;
20073;SDS011;10197;54.282;10.078;2024-01-15T03:30:55;10.65;;;3.20;;
20073;SDS011;10197;54.282;10.078;2024-01-15T03:33:23;10.00;;;3.05;;
20073;SDS011;10197;54.282;10.078;2024-01-15T03:35:50;8.32;;;2.80;;
20073;SDS011;10197;54.282;10.078;2024-01-15T03:38:16;18.13;;;4.25;;
20073;SDS011;10197;54.282;10.078;2024-01-15T03:40:43;14.57;;;3.30;;
20073;SDS011;10197;54.282;10.078;2024-01-15T03:43:12;14.07;;;2.83;;
20073;SDS011;10197;54.282;10.078;2024-01-15T03:45:38;10.25;;;4.70;;
20073;SDS011;10197;54.282;10.078;2024-01-15T03:48:05;43.67;;;22.88;;
20073;SDS011;10197;54.282;10.078;2024-01-15T03:50:34;30.77;;;17.00;;
20073;SDS011;10197;54.282;10.078;2024-01-15T03:53:00;13.65;;;5.57;;
20073;SDS011;10197;54.282;10.078;2024-01-15T03:55:27;18.83;;;5.10;;
20073;SDS011;10197;54.282;10.078;2024-01-15T03:57:54;15.30;;;5.00;;
20073;SDS011;10197;54.282;10.078;2024-01-15T04:00:20;15.73;;;3.83;;
20073;SDS011;10197;54.282;10.078;2024-01-15T04:02:47;11.85;;;3.47;;
20073;SDS011;10197;54.282;10.078;2024-01-15T04:05:14;13.73;;;3.05;;
20073;SDS011;10197;54.282;10.078;2024-01-15T04:07:42;16.52;;;3.20;;
20073;SDS011;10197;54.282;10.078;2024-01-15T04:10:08;14.93;;;3.90;;
20073;SDS011;10197;54.282;10.078;2024-01-15T04:12:35;11.25;;;3.65;;
20073;SDS011;10197;54.282;10.078;2024-01-15T04:15:03;13.50;;;3.63;;
20073;SDS011;10197;54.282;10.078;2024-01-15T04:17:30;20.30;;;4.38;;
20073;SDS011;10197;54.282;10.078;2024-01-15T04:19:57;13.20;;;3.92;;
20073;SDS011;10197;54.282;10.078;2024-01-15T04:22:23;16.98;;;5.35;;
20073;SDS011;10197;54.282;10.078;2024-01-15T04:24:52;19.55;;;4.35;;
20073;SDS011;10197;54.282;10.078;2024-01-15T04:27:19;15.60;;;3.80;;
20073;SDS011;10197;54.282;10.078;2024-01-15T04:29:46;10.93;;;3.50;;
20073;SDS011;10197;54.282;10.078;2024-01-15T04:32:12;13.80;;;4.85;;
20073;SDS011;10197;54.282;10.078;2024-01-15T04:34:39;14.23;;;3.90;;
20073;SDS011;10197;54.282;10.078;2024-01-15T04:37:07;14.75;;;4.40;;
20073;SDS011;10197;54.282;10.078;2024-01-15T04:39:34;12.05;;;3.47;;
20073;SDS011;10197;54.282;10.078;2024-01-15T04:42:02;13.30;;;3.72;;
20073;SDS011;10197;54.282;10.078;2024-01-15T04:44:29;20.13;;;4.30;;
20073;SDS011;10197;54.282;10.078;2024-01-15T04:46:56;16.85;;;5.03;;
20073;SDS011;10197;54.282;10.078;2024-01-15T04:49:22;19.58;;;6.65;;
20073;SDS011;10197;54.282;10.078;2024-01-15T04:51:51;15.57;;;5.10;;
20073;SDS011;10197;54.282;10.078;2024-01-15T04:54:18;20.33;;;6.38;;
20073;SDS011;10197;54.282;10.078;2024-01-15T04:56:46;18.98;;;5.32;;
20073;SDS011;10197;54.282;10.078;2024-01-15T04:59:14;21.88;;;5.45;;
20073;SDS011;10197;54.282;10.078;2024-01-15T05:01:41;15.70;;;4.78;;
20073;SDS011;10197;54.282;10.078;2024-01-15T05:04:07;18.40;;;5.80;;
20073;SDS011;10197;54.282;10.078;2024-01-15T05:06:34;22.00;;;6.95;;
20073;SDS011;10197;54.282;10.078;2024-01-15T05:09:01;31.17;;;8.32;;
20073;SDS011;10197;54.282;10.078;2024-01-15T05:11:28;23.30;;;5.95;;
20073;SDS011;10197;54.282;10.078;2024-01-15T05:13:55;25.85;;;7.60;;
20073;SDS011;10197;54.282;10.078;2024-01-15T05:16:23;24.58;;;7.63;;
20073;SDS011;10197;54.282;10.078;2024-01-15T05:18:50;18.98;;;7.00;;
20073;SDS011;10197;54.282;10.078;2024-01-15T05:21:16;29.15;;;9.23;;
20073;SDS011;10197;54.282;10.078;2024-01-15T05:23:43;16.52;;;4.47;;
20073;SDS011;10197;54.282;10.078;2024-01-15T05:26:10;20.10;;;5.78;;
20073;SDS011;10197;54.282;10.078;2024-01-15T05:28:37;15.48;;;3.20;;
20073;SDS011;10197;54.282;10.078;2024-01-15T05:31:03;13.15;;;3.83;;
20073;SDS011;10197;54.282;10.078;2024-01-15T05:33:32;8.68;;;2.95;;
20073;SDS011;10197;54.282;10.078;2024-01-15T05:35:58;12.73;;;3.60;;
20073;SDS011;10197;54.282;10.078;2024-01-15T05:38:25;10.57;;;3.03;;
20073;SDS011;10197;54.282;10.078;2024-01-15T05:40:52;11.98;;;3.22;;
20073;SDS011;10197;54.282;10.078;2024-01-15T05:43:18;11.57;;;2.65;;
20073;SDS011;10197;54.282;10.078;2024-01-15T05:45:44;14.45;;;3.05;;
20073;SDS011;10197;54.282;10.078;2024-01-15T05:48:11;13.63;;;3.00;;
20073;SDS011;10197;54.282;10.078;2024-01-15T05:50:39;10.20;;;3.53;;
20073;SDS011;10197;54.282;10.078;2024-01-15T05:53:06;11.07;;;2.97;;
20073;SDS011;10197;54.282;10.078;2024-01-15T05:55:33;13.80;;;3.55;;
20073;SDS011;10197;54.282;10.078;2024-01-15T05:58:01;13.05;;;3.00;;
20073;SDS011;10197;54.282;10.078;2024-01-15T06:00:28;11.23;;;2.83;;
20073;SDS011;10197;54.282;10.078;2024-01-15T06:02:55;14.05;;;3.15;;
20073;SDS011;10197;54.282;10.078;2024-01-15T06:05:22;12.35;;;2.95;;
20073;SDS011;10197;54.282;10.078;2024-01-15T06:07:50;10.73;;;3.00;;
20073;SDS011;10197;54.282;10.078;2024-01-15T06:10:16;14.35;;;3.08;;
20073;SDS011;10197;54.282;10.078;2024-01-15T06:12:43;10.85;;;2.83;;
20073;SDS011;10197;54.282;10.078;2024-01-15T06:15:10;19.58;;;3.15;;
20073;SDS011;10197;54.282;10.078;2024-01-15T06:17:37;6.93;;;2.40;;
20073;SDS011;10197;54.282;10.078;2024-01-15T06:20:05;8.38;;;2.58;;
20073;SDS011;10197;54.282;10.078;2024-01-15T06:22:32;12.93;;;3.05;;
20073;SDS011;10197;54.282;10.078;2024-01-15T06:25:00;13.27;;;3.80;;
20073;SDS011;10197;54.282;10.078;2024-01-15T06:27:28;10.57;;;2.92;;
20073;SDS011;10197;54.282;10.078;2024-01-15T06:29:54;11.32;;;3.28;;
20073;SDS011;10197;54.282;10.078;2024-01-15T06:32:22;10.25;;;3.38;;
20073;SDS011;10197;54.282;10.078;2024-01-15T06:34:48;9.35;;;2.97;;
20073;SDS011;10197;54.282;10.078;2024-01-15T06:37:15;6.05;;;2.33;;
20073;SDS011;10197;54.282;10.078;2024-01-15T06:39:44;16.05;;;3.47;;
20073;SDS011;10197;54.282;10.078;2024-01-15T06:42:12;12.07;;;3.30;;
20073;SDS011;10197;54.282;10.078;2024-01-15T06:44:38;8.25;;;2.75;;
20073;SDS011;10197;54.282;10.078;2024-01-15T06:47:05;10.77;;;3.13;;
20073;SDS011;10197;54.282;10.078;2024-01-15T06:49:32;11.65;;;3.20;;
20073;SDS011;10197;54.282;10.078;2024-01-15T06:51:58;18.80;;;3.60;;
20073;SDS011;10197;54.282;10.078;2024-01-15T06:54:25;12.45;;;3.67;;
20073;SDS011;10197;54.282;10.078;2024-01-15T06:56:52;13.40;;;3.38;;
20073;SDS011;10197;54.282;10.078;2024-01-15T06:59:20;13.10;;;3.97;;
20073;SDS011;10197;54.282;10.078;2024-01-15T07:01:46;16.45;;;3.97;;
20073;SDS011;10197;54.282;10.078;2024-01-15T07:04:13;16.10;;;3.67;;
20073;SDS011;10197;54.282;10.078;2024-01-15T07:06:40;10.55;;;3.17;;
20073;SDS011;10197;54.282;10.078;2024-01-15T07:09:06;11.80;;;3.22;;
20073;SDS011;10197;54.282;10.078;2024-01-15T07:11:34;9.73;;;2.85;;
20073;SDS011;10197;54.282;10.078;2024-01-15T07:14:00;10.82;;;3.17;;
20073;SDS011;10197;54.282;10.078;2024-01-15T07:16:29;12.00;;;3.40;;
20073;SDS011;10197;54.282;10.078;2024-01-15T07:18:56;14.43;;;3.63;;
20073;SDS011;10197;54.282;10.078;2024-01-15T07:21:22;17.55;;;3.47;;
20073;SDS011;10197;54.282;10.078;2024-01-15T07:23:49;9.65;;;2.72;;
20073;SDS011;10197;54.282;10.078;2024-01-15T07:26:16;11.73;;;3.45;;
20073;SDS011;10197;54.282;10.078;2024-01-15T07:28:42;13.32;;;3.65;;
20073;SDS011;10197;54.282;10.078;2024-01-15T07:31:09;12.95;;;3.17;;
20073;SDS011;10197;54.282;10.078;2024-01-15T07:33:37;15.90;;;3.70;;
20073;SDS011;10197;54.282;10.078;2024-01-15T07:36:04;11.15;;;2.97;;
20073;SDS011;10197;54.282;10.078;2024-01-15T07:38:31;14.80;;;3.20;;
20073;SDS011;10197;54.282;10.078;2024-01-15T07:40:58;14.90;;;3.88;;
20073;SDS011;10197;54.282;10.078;2024-01-15T07:43:25;13.88;;;2.83;;
20073;SDS011;10197;54.282;10.078;2024-01-15T07:45:53;14.20;;;4.30;;
20073;SDS011;10197;54.282;10.078;2024-01-15T07:48:20;16.33;;;4.30;;
20073;SDS011;10197;54.282;10.078;2024-01-15T07:50:48;17.88;;;3.83;;
20073;SDS011;10197;54.282;10.078;2024-01-15T07:53:14;9.93;;;2.88;;
20073;SDS011;10197;54.282;10.078;2024-01-15T07:55:41;12.43;;;2.90;;
20073;SDS011;10197;54.282;10.078;2024-01-15T07:58:08;9.85;;;3.08;;
20073;SDS011;10197;54.282;10.078;2024-01-15T08:00:36;12.63;;;2.75;;
20073;SDS011;10197;54.282;10.078;2024-01-15T08:03:03;11.43;;;3.15;;
20073;SDS011;10197;54.282;10.078;2024-01-15T08:05:31;7.50;;;2.72;;
20073;SDS011;10197;54.282;10.078;2024-01-15T08:07:59;14.50;;;3.60;;
20073;SDS011;10197;54.282;10.078;2024-01-15T08:10:26;9.93;;;3.30;;
20073;SDS011;10197;54.282;10.078;2024-01-15T08:12:54;9.95;;;3.72;;
20073;SDS011;10197;54.282;10.078;2024-01-15T08:15:20;13.80;;;3.70;;
20073;SDS011;10197;54.282;10.078;2024-01-15T08:17:47;9.70;;;3.72;;
20073;SDS011;10197;54.282;10.078;2024-01-15T08:20:14;8.50;;;2.35;;
20073;SDS011;10197;54.282;10.078;2024-01-15T08:22:41;4.90;;;2.10;;
20073;SDS011;10197;54.282;10.078;2024-01-15T08:25:10;7.95;;;3.80;;
20073;SDS011;10197;54.282;10.078;2024-01-15T08:27:38;11.43;;;3.55;;
20073;SDS011;10197;54.282;10.078;2024-01-15T08:30:05;10.00;;;2.42;;
20073;SDS011;10197;54.282;10.078;2024-01-15T08:32:32;4.70;;;1.90;;
20073;SDS011;10197;54.282;10.078;2024-01-15T08:35:01;7.88;;;2.85;;
20073;SDS011;10197;54.282;10.078;2024-01-15T08:37:29;7.88;;;2.55;;
20073;SDS011;10197;54.282;10.078;2024-01-15T08:39:56;6.32;;;2.30;;
20073;SDS011;10197;54.282;10.078;2024-01-15T08:42:24;8.60;;;3.38;;
20073;SDS011;10197;54.282;10.078;2024-01-15T08:44:50;6.82;;;2.85;;
20073;SDS011;10197;54.282;10.078;2024-01-15T08:47:17;6.68;;;2.05;;
20073;SDS011;10197;54.282;10.078;2024-01-15T08:49:44;5.70;;;2.30;;
20073;SDS011;10197;54.282;10.078;2024-01-15T08:52:11;5.28;;;2.15;;
20073;SDS011;10197;54.282;10.078;2024-01-15T08:54:39;4.85;;;2.10;;
20073;SDS011;10197;54.282;10.078;2024-01-15T08:57:05;4.82;;;1.90;;
20073;SDS011;10197;54.282;10.078;2024-01-15T08:59:33;5.32;;;2.17;;
20073;SDS011;10197;54.282;10.078;2024-01-15T09:02:00;5.18;;;2.45;;
20073;SDS011;10197;54.282;10.078;2024-01-15T09:04:27;3.40;;;1.90;;
20073;SDS011;10197;54.282;10.078;2024-01-15T09:06:53;4.00;;;1.88;;
20073;SDS011;10197;54.282;10.078;2024-01-15T09:09:20;3.42;;;1.90;;
20073;SDS011;10197;54.282;10.078;2024-01-15T09:11:47;4.03;;;2.08;;
20073;SDS011;10197;54.282;10.078;2024-01-15T09:14:14;5.78;;;2.17;;
20073;SDS011;10197;54.282;10.078;2024-01-15T09:16:42;5.63;;;2.63;;
20073;SDS011;10197;54.282;10.078;2024-01-15T09:19:09;5.13;;;2.53;;
20073;SDS011;10197;54.282;10.078;2024-01-15T09:21:37;4.57;;;1.90;;
20073;SDS011;10197;54.282;10.078;2024-01-15T09:24:04;2.60;;;1.92;;
20073;SDS011;10197;54.282;10.078;2024-01-15T09:26:31;4.57;;;2.17;;
20073;SDS011;10197;54.282;10.078;2024-01-15T09:28:58;13.38;;;1.92;;
20073;SDS011;10197;54.282;10.078;2024-01-15T09:31:26;4.40;;;2.10;;
20073;SDS011;10197;54.282;10.078;2024-01-15T09:33:54;4.05;;;1.70;;
20073;SDS011;10197;54.282;10.078;2024-01-15T09:36:23;4.53;;;1.90;;
20073;SDS011;10197;54.282;10.078;2024-01-15T09:38:50;4.45;;;2.30;;
20073;SDS011;10197;54.282;10.078;2024-01-15T09:41:17;2.50;;;1.90;;
20073;SDS011;10197;54.282;10.078;2024-01-15T09:43:44;2.35;;;1.60;;
20073;SDS011;10197;54.282;10.078;2024-01-15T09:46:11;4.78;;;2.08;;
20073;SDS011;10197;54.282;10.078;2024-01-15T09:48:38;2.22;;;2.03;;
20073;SDS011;10197;54.282;10.078;2024-01-15T09:51:06;4.00;;;2.10;;
20073;SDS011;10197;54.282;10.078;2024-01-15T09:53:33;6.05;;;1.90;;
20073;SDS011;10197;54.282;10.078;2024-01-15T09:56:00;2.38;;;1.55;;
20073;SDS011;10197;54.282;10.078;2024-01-15T09:58:27;4.55;;;1.75;;
20073;SDS011;10197;54.282;10.078;2024-01-15T10:00:55;2.03;;;1.80;;
20073;SDS011;10197;54.282;10.078;2024-01-15T10:03:22;5.00;;;2.13;;
20073;SDS011;10197;54.282;10.078;2024-01-15T10:05:48;2.92;;;1.63;;
20073;SDS011;10197;54.282;10.078;2024-01-15T10:08:17;2.53;;;1.70;;
20073;SDS011;10197;54.282;10.078;2024-01-15T10:10:44;4.35;;;1.92;;
20073;SDS011;10197;54.282;10.078;2024-01-15T10:13:11;2.97;;;1.95;;
20073;SDS011;10197;54.282;10.078;2024-01-15T10:15:37;2.90;;;1.48;;
20073;SDS011;10197;54.282;10.078;2024-01-15T10:18:04;3.50;;;1.70;;
20073;SDS011;10197;54.282;10.078;2024-01-15T10:20:31;3.05;;;1.70;;
20073;SDS011;10197;54.282;10.078;2024-01-15T10:22:58;4.75;;;1.83;;
20073;SDS011;10197;54.282;10.078;2024-01-15T10:25:27;2.15;;;1.55;;
20073;SDS011;10197;54.282;10.078;2024-01-15T10:28:00;2.25;;;1.52;;
20073;SDS011;10197;54.282;10.078;2024-01-15T10:30:27;2.00;;;1.80;;
20073;SDS011;10197;54.282;10.078;2024-01-15T10:32:57;2.45;;;1.60;;
20073;SDS011;10197;54.282;10.078;2024-01-15T10:35:26;4.03;;;1.80;;
20073;SDS011;10197;54.282;10.078;2024-01-15T10:37:55;3.65;;;1.70;;
20073;SDS011;10197;54.282;10.078;2024-01-15T10:40:22;1.63;;;1.45;;
20073;SDS011;10197;54.282;10.078;2024-01-15T10:42:50;4.30;;;1.60;;
20073;SDS011;10197;54.282;10.078;2024-01-15T10:45:18;4.78;;;1.60;;
20073;SDS011;10197;54.282;10.078;2024-01-15T10:47:45;6.35;;;1.85;;
20073;SDS011;10197;54.282;10.078;2024-01-15T10:50:13;3.42;;;1.63;;
20073;SDS011;10197;54.282;10.078;2024-01-15T10:52:40;3.67;;;1.70;;
20073;SDS011;10197;54.282;10.078;2024-01-15T10:55:08;4.53;;;1.90;;
20073;SDS011;10197;54.282;10.078;2024-01-15T10:57:36;3.58;;;1.80;;
20073;SDS011;10197;54.282;10.078;2024-01-15T11:00:05;3.17;;;1.88;;
20073;SDS011;10197;54.282;10.078;2024-01-15T11:02:34;2.50;;;1.83;;
20073;SDS011;10197;54.282;10.078;2024-01-15T11:05:02;5.75;;;2.00;;
20073;SDS011;10197;54.282;10.078;2024-01-15T11:07:29;3.05;;;1.92;;
20073;SDS011;10197;54.282;10.078;2024-01-15T11:09:56;4.35;;;1.83;;
20073;SDS011;10197;54.282;10.078;2024-01-15T11:12:24;6.25;;;2.58;;
20073;SDS011;10197;54.282;10.078;2024-01-15T11:14:51;3.13;;;2.00;;
20073;SDS011;10197;54.282;10.078;2024-01-15T11:17:21;2.78;;;1.80;;
20073;SDS011;10197;54.282;10.078;2024-01-15T11:19:48;4.53;;;2.00;;
20073;SDS011;10197;54.282;10.078;2024-01-15T11:25:17;5.97;;;2.67;;
20073;SDS011;10197;54.282;10.078;2024-01-15T11:27:45;3.95;;;2.35;;
20073;SDS011;10197;54.282;10.078;2024-01-15T11:30:15;4.80;;;3.08;;
20073;SDS011;10197;54.282;10.078;2024-01-15T11:32:43;5.40;;;2.92;;
20073;SDS011;10197;54.282;10.078;2024-01-15T11:35:11;11.95;;;7.30;;
20073;SDS011;10197;54.282;10.078;2024-01-15T11:37:58;12.10;;;5.82;;
20073;SDS011;10197;54.282;10.078;2024-01-15T11:40:38;9.63;;;4.57;;
20073;SDS011;10197;54.282;10.078;2024-01-15T11:43:07;9.52;;;4.10;;
20073;SDS011;10197;54.282;10.078;2024-01-15T11:45:35;8.23;;;4.63;;
20073;SDS011;10197;54.282;10.078;2024-01-15T11:48:09;5.63;;;2.80;;
20073;SDS011;10197;54.282;10.078;2024-01-15T11:50:38;4.53;;;2.65;;
20073;SDS011;10197;54.282;10.078;2024-01-15T11:53:08;5.97;;;1.90;;
20073;SDS011;10197;54.282;10.078;2024-01-15T11:55:48;5.53;;;2.20;;
20073;SDS011;10197;54.282;10.078;2024-01-15T11:58:17;5.72;;;3.20;;
20073;SDS011;10197;54.282;10.078;2024-01-15T12:00:45;4.63;;;2.50;;
20073;SDS011;10197;54.282;10.078;2024-01-15T12:03:16;6.85;;;4.13;;
20073;SDS011;10197;54.282;10.078;2024-01-15T12:05:42;11.27;;;5.35;;
20073;SDS011;10197;54.282;10.078;2024-01-15T12:08:09;3.05;;;2.10;;
20073;SDS011;10197;54.282;10.078;2024-01-15T12:10:36;4.95;;;2.75;;
20073;SDS011;10197;54.282;10.078;2024-01-15T12:13:06;6.68;;;3.85;;
20073;SDS011;10197;54.282;10.078;2024-01-15T12:15:36;2.83;;;2.53;;
20073;SDS011;10197;54.282;10.078;2024-01-15T12:18:06;5.93;;;2.65;;
20073;SDS011;10197;54.282;10.078;2024-01-15T12:20:35;6.22;;;3.22;;
20073;SDS011;10197;54.282;10.078;2024-01-15T12:23:02;2.53;;;2.15;;
20073;SDS011;10197;54.282;10.078;2024-01-15T12:25:30;9.05;;;6.68;;
20073;SDS011;10197;54.282;10.078;2024-01-15T12:27:57;5.30;;;3.65;;
20073;SDS011;10197;54.282;10.078;2024-01-15T12:30:25;4.45;;;3.30;;
20073;SDS011;10197;54.282;10.078;2024-01-15T12:32:52;5.25;;;2.70;;
20073;SDS011;10197;54.282;10.078;2024-01-15T12:35:19;3.72;;;1.83;;
20073;SDS011;10197;54.282;10.078;2024-01-15T12:37:47;3.75;;;2.60;;
20073;SDS011;10197;54.282;10.078;2024-01-15T12:40:18;4.47;;;1.67;;
20073;SDS011;10197;54.282;10.078;2024-01-15T12:42:45;2.35;;;1.73;;
20073;SDS011;10197;54.282;10.078;2024-01-15T12:45:12;6.20;;;1.90;;
20073;SDS011;10197;54.282;10.078;2024-01-15T12:47:39;8.93;;;5.72;;
20073;SDS011;10197;54.282;10.078;2024-01-15T12:50:06;6.60;;;4.03;;
20073;SDS011;10197;54.282;10.078;2024-01-15T12:52:34;6.68;;;3.58;;
20073;SDS011;10197;54.282;10.078;2024-01-15T12:55:04;4.55;;;2.00;;
20073;SDS011;10197;54.282;10.078;2024-01-15T12:57:32;3.28;;;2.17;;
20073;SDS011;10197;54.282;10.078;2024-01-15T12:59:59;10.00;;;5.22;;
20073;SDS011;10197;54.282;10.078;2024-01-15T13:02:26;3.78;;;3.25;;
20073;SDS011;10197;54.282;10.078;2024-01-15T13:04:53;2.80;;;2.10;;
20073;SDS011;10197;54.282;10.078;2024-01-15T13:07:20;3.40;;;2.15;;
20073;SDS011;10197;54.282;10.078;2024-01-15T13:09:47;3.75;;;2.15;;
20073;SDS011;10197;54.282;10.078;2024-01-15T13:12:18;7.75;;;4.38;;
20073;SDS011;10197;54.282;10.078;2024-01-15T13:14:45;3.50;;;2.55;;
20073;SDS011;10197;54.282;10.078;2024-01-15T13:17:12;3.40;;;1.90;;
20073;SDS011;10197;54.282;10.078;2024-01-15T13:19:39;3.38;;;2.65;;
20073;SDS011;10197;54.282;10.078;2024-01-15T13:22:07;3.25;;;1.88;;
20073;SDS011;10197;54.282;10.078;2024-01-15T13:24:34;2.88;;;1.73;;
20073;SDS011;10197;54.282;10.078;2024-01-15T13:27:01;5.50;;;2.35;;
20073;SDS011;10197;54.282;10.078;2024-01-15T13:29:30;7.05;;;4.72;;
20073;SDS011;10197;54.282;10.078;2024-01-15T13:31:57;5.20;;;2.97;;
20073;SDS011;10197;54.282;10.078;2024-01-15T13:34:24;3.95;;;2.25;;
20073;SDS011;10197;54.282;10.078;2024-01-15T13:36:51;3.45;;;2.38;;
20073;SDS011;10197;54.282;10.078;2024-01-15T13:39:18;5.25;;;2.65;;
20073;SDS011;10197;54.282;10.078;2024-01-15T13:41:46;5.40;;;2.13;;
20073;SDS011;10197;54.282;10.078;2024-01-15T13:44:12;6.38;;;3.97;;
20073;SDS011;10197;54.282;10.078;2024-01-15T13:46:41;4.38;;;2.85;;
20073;SDS011;10197;54.282;10.078;2024-01-15T13:49:08;6.45;;;2.88;;
20073;SDS011;10197;54.282;10.078;2024-01-15T13:51:35;5.50;;;2.00;;
20073;SDS011;10197;54.282;10.078;2024-01-15T13:54:02;4.35;;;2.17;;
20073;SDS011;10197;54.282;10.078;2024-01-15T13:56:30;10.30;;;3.67;;
20073;SDS011;10197;54.282;10.078;2024-01-15T13:58:58;8.60;;;2.70;;
20073;SDS011;10197;54.282;10.078;2024-01-15T14:01:25;9.18;;;4.90;;
20073;SDS011;10197;54.282;10.078;2024-01-15T14:03:53;6.53;;;3.20;;
20073;SDS011;10197;54.282;10.078;2024-01-15T14:06:20;7.10;;;2.90;;
20073;SDS011;10197;54.282;10.078;2024-01-15T14:08:47;8.20;;;4.18;;
20073;SDS011;10197;54.282;10.078;2024-01-15T14:11:13;9.15;;;3.30;;
20073;SDS011;10197;54.282;10.078;2024-01-15T14:13:40;4.63;;;2.63;;
20073;SDS011;10197;54.282;10.078;2024-01-15T14:16:07;5.07;;;2.78;;
20073;SDS011;10197;54.282;10.078;2024-01-15T14:18:34;8.70;;;3.35;;
20073;SDS011;10197;54.282;10.078;2024-01-15T14:21:03;4.50;;;2.75;;
20073;SDS011;10197;54.282;10.078;2024-01-15T14:23:30;4.07;;;2.60;;
20073;SDS011;10197;54.282;10.078;2024-01-15T14:25:57;9.35;;;3.15;;
20073;SDS011;10197;54.282;10.078;2024-01-15T14:28:23;4.25;;;2.30;;
20073;SDS011;10197;54.282;10.078;2024-01-15T14:30:50;3.20;;;1.70;;
20073;SDS011;10197;54.282;10.078;2024-01-15T14:33:17;4.20;;;1.80;;